sensor_id;sensor_type;location;lat;lon;timestamp;pressure;altitude;pressure_sealevel;temperature;humidity
7474;BME280;3778;42.572;23.426;2022-11-15T00:00:47;59213.91;;;-146.70;86.06
7474;BME280;3778;42.572;23.426;2022-11-15T00:03:14;59215.97;;;-146.70;86.13
7474;BME280;3778;42.572;23.426;2022-11-15T00:05:41;59236.63;;;-146.70;86.20
7474;BME280;3778;42.572;23.426;2022-11-15T00:08:08;59253.13;;;-146.70;86.46
7474;BME280;3778;42.572;23.426;2022-11-15T00:10:35;59253.13;;;-146.70;86.48
7474;BME280;3778;42.572;23.426;2022-11-15T00:13:05;59230.41;;;-146.70;86.49
7474;BME280;3778;42.572;23.426;2022-11-15T00:15:34;59249.00;;;-146.70;86.48
7474;BME280;3778;42.572;23.426;2022-11-15T00:18:03;59246.94;;;-146.70;86.52
7474;BME280;3778;42.572;23.426;2022-11-15T00:20:29;59263.47;;;-146.70;86.51
7474;BME280;3778;42.572;23.426;2022-11-15T00:22:56;59273.78;;;-146.70;86.39
7474;BME280;3778;42.572;23.426;2022-11-15T00:25:23;59257.28;;;-146.70;86.41
7474;BME280;3778;42.572;23.426;2022-11-15T00:27:50;59244.88;;;-146.70;86.16
7474;BME280;3778;42.572;23.426;2022-11-15T00:30:17;59211.81;;;-146.70;86.05
7474;BME280;3778;42.572;23.426;2022-11-15T00:32:44;59220.09;;;-146.70;86.08
7474;BME280;3778;42.572;23.426;2022-11-15T00:35:12;59253.13;;;-146.70;86.07
7474;BME280;3778;42.572;23.426;2022-11-15T00:37:39;59234.56;;;-146.70;86.08
7474;BME280;3778;42.572;23.426;2022-11-15T00:40:07;59249.00;;;-146.70;86.20
7474;BME280;3778;42.572;23.426;2022-11-15T00:42:34;59246.94;;;-146.70;86.00
7474;BME280;3778;42.572;23.426;2022-11-15T00:45:01;59249.00;;;-146.70;86.08
7474;BME280;3778;42.572;23.426;2022-11-15T00:47:27;59257.28;;;-146.70;85.94
7474;BME280;3778;42.572;23.426;2022-11-15T00:49:54;59273.78;;;-146.70;85.97
7474;BME280;3778;42.572;23.426;2022-11-15T00:52:22;59267.59;;;-146.70;85.80
7474;BME280;3778;42.572;23.426;2022-11-15T00:54:49;59236.63;;;-146.70;85.62
7474;BME280;3778;42.572;23.426;2022-11-15T00:57:16;59292.38;;;-146.70;85.52
7474;BME280;3778;42.572;23.426;2022-11-15T00:59:43;59240.75;;;-146.70;85.49
7474;BME280;3778;42.572;23.426;2022-11-15T01:02:09;59228.34;;;-146.70;85.31
7474;BME280;3778;42.572;23.426;2022-11-15T01:04:36;59265.53;;;-146.70;85.07
7474;BME280;3778;42.572;23.426;2022-11-15T01:07:03;59249.00;;;-146.70;84.89
7474;BME280;3778;42.572;23.426;2022-11-15T01:09:31;59263.47;;;-146.70;84.79
7474;BME280;3778;42.572;23.426;2022-11-15T01:11:58;59267.59;;;-146.70;84.75
7474;BME280;3778;42.572;23.426;2022-11-15T01:14:25;59249.00;;;-146.70;84.56
7474;BME280;3778;42.572;23.426;2022-11-15T01:16:51;59275.88;;;-146.70;84.38
7474;BME280;3778;42.572;23.426;2022-11-15T01:19:18;59238.69;;;-146.70;84.43
7474;BME280;3778;42.572;23.426;2022-11-15T01:21:45;59261.41;;;-146.70;84.40
7474;BME280;3778;42.572;23.426;2022-11-15T01:24:12;59224.22;;;-146.70;84.57
7474;BME280;3778;42.572;23.426;2022-11-15T01:26:41;59265.53;;;-146.70;84.79
7474;BME280;3778;42.572;23.426;2022-11-15T01:29:07;59222.16;;;-146.70;84.82
7474;BME280;3778;42.572;23.426;2022-11-15T01:31:34;59259.34;;;-146.70;85.17
7474;BME280;3778;42.572;23.426;2022-11-15T01:34:01;59218.03;;;-146.70;85.24
7474;BME280;3778;42.572;23.426;2022-11-15T01:36:28;59271.72;;;-146.70;85.59
7474;BME280;3778;42.572;23.426;2022-11-15T01:38:55;59236.63;;;-146.70;85.74
7474;BME280;3778;42.572;23.426;2022-11-15T01:41:24;59207.69;;;-146.70;85.79
7474;BME280;3778;42.572;23.426;2022-11-15T01:43:54;59238.69;;;-146.70;85.67
7474;BME280;3778;42.572;23.426;2022-11-15T01:46:28;59236.63;;;-146.70;85.70
7474;BME280;3778;42.572;23.426;2022-11-15T01:48:59;59240.75;;;-146.70;85.65
7474;BME280;3778;42.572;23.426;2022-11-15T01:51:30;59253.13;;;-146.70;85.47
7474;BME280;3778;42.572;23.426;2022-11-15T01:54:00;59246.94;;;-146.70;85.44
7474;BME280;3778;42.572;23.426;2022-11-15T01:56:30;59255.22;;;-146.70;85.39
7474;BME280;3778;42.572;23.426;2022-11-15T01:59:02;59261.41;;;-146.70;85.46
7474;BME280;3778;42.572;23.426;2022-11-15T02:01:30;59238.69;;;-146.70;85.41
7474;BME280;3778;42.572;23.426;2022-11-15T02:04:01;59280.00;;;-146.70;85.36
7474;BME280;3778;42.572;23.426;2022-11-15T02:06:30;59226.28;;;-146.70;85.53
7474;BME280;3778;42.572;23.426;2022-11-15T02:08:57;59269.66;;;-146.70;85.65
7474;BME280;3778;42.572;23.426;2022-11-15T02:11:25;59224.22;;;-146.70;85.89
7474;BME280;3778;42.572;23.426;2022-11-15T02:13:52;59224.22;;;-146.70;86.33
7474;BME280;3778;42.572;23.426;2022-11-15T02:16:26;59244.88;;;-146.70;86.59
7474;BME280;3778;42.572;23.426;2022-11-15T02:19:01;59240.75;;;-146.70;86.88
7474;BME280;3778;42.572;23.426;2022-11-15T02:21:37;59251.06;;;-146.70;87.02
7474;BME280;3778;42.572;23.426;2022-11-15T02:30:23;59273.78;;;-146.70;87.58
7474;BME280;3778;42.572;23.426;2022-11-15T02:32:53;59238.69;;;-146.70;87.54
7474;BME280;3778;42.572;23.426;2022-11-15T02:35:28;59236.63;;;-146.70;87.57
7474;BME280;3778;42.572;23.426;2022-11-15T02:37:59;59218.03;;;-146.70;87.52
7474;BME280;3778;42.572;23.426;2022-11-15T02:40:37;59253.13;;;-146.70;87.71
7474;BME280;3778;42.572;23.426;2022-11-15T02:43:09;59197.38;;;-146.70;87.54
7474;BME280;3778;42.572;23.426;2022-11-15T02:46:00;59251.06;;;-146.70;87.61
7474;BME280;3778;42.572;23.426;2022-11-15T02:48:30;59232.47;;;-146.70;87.69
7474;BME280;3778;42.572;23.426;2022-11-15T02:50:58;59263.47;;;-146.70;87.65
7474;BME280;3778;42.572;23.426;2022-11-15T02:53:25;59240.75;;;-146.70;87.71
7474;BME280;3778;42.572;23.426;2022-11-15T02:55:53;59253.13;;;-146.70;87.71
7474;BME280;3778;42.572;23.426;2022-11-15T02:58:43;59288.25;;;-146.70;87.79
7474;BME280;3778;42.572;23.426;2022-11-15T03:01:23;59234.56;;;-146.70;87.74
7474;BME280;3778;42.572;23.426;2022-11-15T03:04:01;59230.41;;;-146.70;87.69
7474;BME280;3778;42.572;23.426;2022-11-15T03:06:36;59236.63;;;-146.70;87.63
7474;BME280;3778;42.572;23.426;2022-11-15T03:09:07;59255.22;;;-146.70;87.50
7474;BME280;3778;42.572;23.426;2022-11-15T03:11:39;59234.56;;;-146.70;87.59
7474;BME280;3778;42.572;23.426;2022-11-15T03:14:15;59211.81;;;-146.70;87.77
7474;BME280;3778;42.572;23.426;2022-11-15T03:16:50;59244.88;;;-146.70;87.84
7474;BME280;3778;42.572;23.426;2022-11-15T03:19:25;59220.09;;;-146.70;87.91
7474;BME280;3778;42.572;23.426;2022-11-15T03:21:56;59261.41;;;-146.70;88.03
7474;BME280;3778;42.572;23.426;2022-11-15T03:24:25;59218.03;;;-146.70;88.04
7474;BME280;3778;42.572;23.426;2022-11-15T03:26:55;59246.94;;;-146.70;88.05
7474;BME280;3778;42.572;23.426;2022-11-15T03:29:27;59280.00;;;-146.70;87.99
7474;BME280;3778;42.572;23.426;2022-11-15T03:32:00;59244.88;;;-146.70;87.84
7474;BME280;3778;42.572;23.426;2022-11-15T03:34:32;59224.22;;;-146.70;87.89
7474;BME280;3778;42.572;23.426;2022-11-15T03:37:01;59290.31;;;-146.70;87.81
7474;BME280;3778;42.572;23.426;2022-11-15T03:39:28;59244.88;;;-146.70;87.90
7474;BME280;3778;42.572;23.426;2022-11-15T03:42:01;59246.94;;;-146.70;87.95
7474;BME280;3778;42.572;23.426;2022-11-15T03:44:36;59205.63;;;-146.70;87.98
7474;BME280;3778;42.572;23.426;2022-11-15T03:47:11;59242.81;;;-146.70;88.04
7474;BME280;3778;42.572;23.426;2022-11-15T03:49:44;59267.59;;;-146.70;88.00
7474;BME280;3778;42.572;23.426;2022-11-15T03:52:12;59290.31;;;-146.70;87.97
7474;BME280;3778;42.572;23.426;2022-11-15T03:54:48;59290.31;;;-146.70;87.94
7474;BME280;3778;42.572;23.426;2022-11-15T03:57:15;59236.63;;;-146.70;88.15
7474;BME280;3778;42.572;23.426;2022-11-15T03:59:42;59267.59;;;-146.70;88.04
7474;BME280;3778;42.572;23.426;2022-11-15T04:02:11;59224.22;;;-146.70;88.15
7474;BME280;3778;42.572;23.426;2022-11-15T04:04:38;59240.75;;;-146.70;88.29
7474;BME280;3778;42.572;23.426;2022-11-15T04:07:05;59222.16;;;-146.70;88.48
7474;BME280;3778;42.572;23.426;2022-11-15T04:09:32;59236.63;;;-146.70;88.46
7474;BME280;3778;42.572;23.426;2022-11-15T04:11:59;59253.13;;;-146.70;88.59
7474;BME280;3778;42.572;23.426;2022-11-15T04:14:25;59263.47;;;-146.70;88.60
7474;BME280;3778;42.572;23.426;2022-11-15T04:16:52;59244.88;;;-146.70;88.70
7474;BME280;3778;42.572;23.426;2022-11-15T04:19:20;59298.59;;;-146.70;88.73
7474;BME280;3778;42.572;23.426;2022-11-15T04:22:04;59195.31;;;-146.70;88.84
7474;BME280;3778;42.572;23.426;2022-11-15T04:24:48;59249.00;;;-146.70;88.89
7474;BME280;3778;42.572;23.426;2022-11-15T04:27:15;59215.97;;;-146.70;88.95
7474;BME280;3778;42.572;23.426;2022-11-15T04:29:41;59261.41;;;-146.70;89.10
7474;BME280;3778;42.572;23.426;2022-11-15T04:32:08;59249.00;;;-146.70;89.26
7474;BME280;3778;42.572;23.426;2022-11-15T04:34:36;59244.88;;;-146.70;89.35
7474;BME280;3778;42.572;23.426;2022-11-15T04:37:05;59263.47;;;-146.70;89.35
7474;BME280;3778;42.572;23.426;2022-11-15T04:39:38;59244.88;;;-146.70;89.50
7474;BME280;3778;42.572;23.426;2022-11-15T04:42:05;59224.22;;;-146.70;89.60
7474;BME280;3778;42.572;23.426;2022-11-15T04:44:32;59273.78;;;-146.70;89.61
7474;BME280;3778;42.572;23.426;2022-11-15T04:46:59;59282.06;;;-146.70;89.67
7474;BME280;3778;42.572;23.426;2022-11-15T04:49:26;59211.81;;;-146.70;89.76
7474;BME280;3778;42.572;23.426;2022-11-15T04:51:54;59203.56;;;-146.70;89.85
7474;BME280;3778;42.572;23.426;2022-11-15T04:54:21;59261.41;;;-146.70;89.90
7474;BME280;3778;42.572;23.426;2022-11-15T04:56:47;59240.75;;;-146.70;89.99
7474;BME280;3778;42.572;23.426;2022-11-15T04:59:14;59211.81;;;-146.70;90.08
7474;BME280;3778;42.572;23.426;2022-11-15T05:01:41;59244.88;;;-146.70;90.13
7474;BME280;3778;42.572;23.426;2022-11-15T05:04:08;59228.34;;;-146.70;90.08
7474;BME280;3778;42.572;23.426;2022-11-15T05:06:46;59242.81;;;-146.70;90.16
7474;BME280;3778;42.572;23.426;2022-11-15T05:09:15;59240.75;;;-146.70;90.02
7474;BME280;3778;42.572;23.426;2022-11-15T05:11:41;59253.13;;;-146.70;90.11
7474;BME280;3778;42.572;23.426;2022-11-15T05:14:08;59242.81;;;-146.70;90.06
7474;BME280;3778;42.572;23.426;2022-11-15T05:16:35;59284.13;;;-146.70;90.15
7474;BME280;3778;42.572;23.426;2022-11-15T05:19:02;59238.69;;;-146.70;90.15
7474;BME280;3778;42.572;23.426;2022-11-15T05:21:29;59257.28;;;-146.70;90.23
7474;BME280;3778;42.572;23.426;2022-11-15T05:23:56;59215.97;;;-146.70;90.14
7474;BME280;3778;42.572;23.426;2022-11-15T05:26:25;59240.75;;;-146.70;90.16
7474;BME280;3778;42.572;23.426;2022-11-15T05:28:53;59244.88;;;-146.70;90.15
7474;BME280;3778;42.572;23.426;2022-11-15T05:31:20;59261.41;;;-146.70;90.27
7474;BME280;3778;42.572;23.426;2022-11-15T05:33:48;59201.50;;;-146.70;90.21
7474;BME280;3778;42.572;23.426;2022-11-15T05:36:18;59203.56;;;-146.70;90.20
7474;BME280;3778;42.572;23.426;2022-11-15T05:38:48;59257.28;;;-146.70;90.15
7474;BME280;3778;42.572;23.426;2022-11-15T05:41:16;59224.22;;;-146.70;90.02
7474;BME280;3778;42.572;23.426;2022-11-15T05:43:47;59269.66;;;-146.70;89.98
7474;BME280;3778;42.572;23.426;2022-11-15T05:46:15;59251.06;;;-146.70;89.93
7474;BME280;3778;42.572;23.426;2022-11-15T05:48:46;59244.88;;;-146.70;90.02
7474;BME280;3778;42.572;23.426;2022-11-15T05:51:15;59232.47;;;-146.70;90.01
7474;BME280;3778;42.572;23.426;2022-11-15T05:53:44;59224.22;;;-146.70;89.95
7474;BME280;3778;42.572;23.426;2022-11-15T05:56:12;59255.22;;;-146.70;89.84
7474;BME280;3778;42.572;23.426;2022-11-15T05:58:39;59261.41;;;-146.70;89.80
7474;BME280;3778;42.572;23.426;2022-11-15T06:01:07;59255.22;;;-146.70;90.00
7474;BME280;3778;42.572;23.426;2022-11-15T06:03:34;59255.22;;;-146.70;90.00
7474;BME280;3778;42.572;23.426;2022-11-15T06:06:01;59228.34;;;-146.70;89.95
7474;BME280;3778;42.572;23.426;2022-11-15T06:08:28;59249.00;;;-146.70;90.01
7474;BME280;3778;42.572;23.426;2022-11-15T06:10:54;59255.22;;;-146.70;89.96
7474;BME280;3778;42.572;23.426;2022-11-15T06:13:21;59257.28;;;-146.70;90.02
7474;BME280;3778;42.572;23.426;2022-11-15T06:15:48;59261.41;;;-146.70;90.06
7474;BME280;3778;42.572;23.426;2022-11-15T06:18:16;59215.97;;;-146.70;89.97
7474;BME280;3778;42.572;23.426;2022-11-15T06:20:42;59228.34;;;-146.70;90.10
7474;BME280;3778;42.572;23.426;2022-11-15T06:23:09;59240.75;;;-146.70;90.02
7474;BME280;3778;42.572;23.426;2022-11-15T06:25:36;59224.22;;;-146.70;90.04
7474;BME280;3778;42.572;23.426;2022-11-15T06:28:03;59277.94;;;-146.70;90.23
7474;BME280;3778;42.572;23.426;2022-11-15T06:30:30;59280.00;;;-146.70;90.23
7474;BME280;3778;42.572;23.426;2022-11-15T06:33:00;59215.97;;;-146.70;90.20
7474;BME280;3778;42.572;23.426;2022-11-15T06:35:30;59298.59;;;-146.70;90.13
7474;BME280;3778;42.572;23.426;2022-11-15T06:38:02;59238.69;;;-146.70;89.96
7474;BME280;3778;42.572;23.426;2022-11-15T06:40:29;59249.00;;;-146.70;89.93
7474;BME280;3778;42.572;23.426;2022-11-15T06:42:58;59265.53;;;-146.70;89.87
7474;BME280;3778;42.572;23.426;2022-11-15T06:45:24;59220.09;;;-146.70;89.73
7474;BME280;3778;42.572;23.426;2022-11-15T06:47:51;59261.41;;;-146.70;89.77
7474;BME280;3778;42.572;23.426;2022-11-15T06:50:18;59230.41;;;-146.70;89.54
7474;BME280;3778;42.572;23.426;2022-11-15T06:52:47;59259.34;;;-146.70;89.57
7474;BME280;3778;42.572;23.426;2022-11-15T06:55:14;59230.41;;;-146.70;89.34
7474;BME280;3778;42.572;23.426;2022-11-15T06:57:46;59253.13;;;-146.70;89.13
7474;BME280;3778;42.572;23.426;2022-11-15T07:00:15;59249.00;;;-146.70;88.90
7474;BME280;3778;42.572;23.426;2022-11-15T07:02:42;59267.59;;;-146.70;88.84
7474;BME280;3778;42.572;23.426;2022-11-15T07:05:09;59228.34;;;-146.70;88.49
7474;BME280;3778;42.572;23.426;2022-11-15T07:07:35;59228.34;;;-146.70;88.11
7474;BME280;3778;42.572;23.426;2022-11-15T07:10:04;59265.53;;;-146.70;87.80
7474;BME280;3778;42.572;23.426;2022-11-15T07:12:32;59246.94;;;-146.70;87.84
7474;BME280;3778;42.572;23.426;2022-11-15T07:14:59;59280.00;;;-146.70;87.61
7474;BME280;3778;42.572;23.426;2022-11-15T07:17:25;59253.13;;;-146.70;87.22
7474;BME280;3778;42.572;23.426;2022-11-15T07:19:52;59224.22;;;-146.70;86.80
7474;BME280;3778;42.572;23.426;2022-11-15T07:22:19;59253.13;;;-146.70;86.33
7474;BME280;3778;42.572;23.426;2022-11-15T07:24:45;59265.53;;;-146.70;86.23
7474;BME280;3778;42.572;23.426;2022-11-15T07:27:14;59286.19;;;-146.70;86.13
7474;BME280;3778;42.572;23.426;2022-11-15T07:29:40;59269.66;;;-146.70;86.11
7474;BME280;3778;42.572;23.426;2022-11-15T07:32:07;59236.63;;;-146.70;86.02
7474;BME280;3778;42.572;23.426;2022-11-15T07:34:34;59238.69;;;-146.70;86.06
7474;BME280;3778;42.572;23.426;2022-11-15T07:37:00;59277.94;;;-146.70;86.25
7474;BME280;3778;42.572;23.426;2022-11-15T07:39:27;59277.94;;;-146.70;85.90
7474;BME280;3778;42.572;23.426;2022-11-15T07:41:54;59228.34;;;-146.70;85.72
7474;BME280;3778;42.572;23.426;2022-11-15T07:44:42;59261.41;;;-146.70;85.41
7474;BME280;3778;42.572;23.426;2022-11-15T07:47:09;59269.66;;;-146.70;85.27
7474;BME280;3778;42.572;23.426;2022-11-15T07:49:35;59271.72;;;-146.70;84.81
7474;BME280;3778;42.572;23.426;2022-11-15T07:52:02;59280.00;;;-146.70;84.61
7474;BME280;3778;42.572;23.426;2022-11-15T07:54:29;59253.13;;;-146.70;84.49
7474;BME280;3778;42.572;23.426;2022-11-15T07:56:56;59240.75;;;-146.70;84.48
7474;BME280;3778;42.572;23.426;2022-11-15T07:59:22;59261.41;;;-146.70;83.50
7474;BME280;3778;42.572;23.426;2022-11-15T08:01:51;59280.00;;;-146.70;83.00
7474;BME280;3778;42.572;23.426;2022-11-15T08:04:18;59290.31;;;-146.70;82.58
7474;BME280;3778;42.572;23.426;2022-11-15T08:06:44;59259.34;;;-146.70;82.38
7474;BME280;3778;42.572;23.426;2022-11-15T08:09:11;59288.25;;;-146.70;82.22
7474;BME280;3778;42.572;23.426;2022-11-15T08:11:38;59257.28;;;-146.70;81.55
7474;BME280;3778;42.572;23.426;2022-11-15T08:14:05;59271.72;;;-146.70;81.50
7474;BME280;3778;42.572;23.426;2022-11-15T08:16:31;59288.25;;;-146.70;80.89
7474;BME280;3778;42.572;23.426;2022-11-15T08:19:00;59251.06;;;-146.70;80.96
7474;BME280;3778;42.572;23.426;2022-11-15T08:21:26;59319.25;;;-146.70;80.36
7474;BME280;3778;42.572;23.426;2022-11-15T08:23:53;59269.66;;;-146.70;79.76
7474;BME280;3778;42.572;23.426;2022-11-15T08:26:20;59267.59;;;-146.70;79.19
7474;BME280;3778;42.572;23.426;2022-11-15T08:28:47;59300.66;;;-146.70;79.27
7474;BME280;3778;42.572;23.426;2022-11-15T08:31:14;59331.63;;;-146.70;79.39
7474;BME280;3778;42.572;23.426;2022-11-15T08:33:43;59298.59;;;-146.70;80.05
7474;BME280;3778;42.572;23.426;2022-11-15T08:36:13;59271.72;;;-146.70;80.22
7474;BME280;3778;42.572;23.426;2022-11-15T08:38:40;59273.78;;;-146.70;79.92
7474;BME280;3778;42.572;23.426;2022-11-15T08:41:12;59257.28;;;-146.70;79.58
7474;BME280;3778;42.572;23.426;2022-11-15T08:43:40;59284.13;;;-146.70;79.45
7474;BME280;3778;42.572;23.426;2022-11-15T08:46:08;59249.00;;;-146.70;78.58
7474;BME280;3778;42.572;23.426;2022-11-15T08:48:37;59282.06;;;-146.70;78.91
7474;BME280;3778;42.572;23.426;2022-11-15T08:51:04;59313.03;;;-146.70;79.22
7474;BME280;3778;42.572;23.426;2022-11-15T08:53:33;59249.00;;;-146.70;80.11
7474;BME280;3778;42.572;23.426;2022-11-15T08:56:00;59280.00;;;-146.70;79.63
7474;BME280;3778;42.572;23.426;2022-11-15T08:58:27;59255.22;;;-146.70;79.43
7474;BME280;3778;42.572;23.426;2022-11-15T09:00:54;59282.06;;;-146.70;79.08
7474;BME280;3778;42.572;23.426;2022-11-15T09:03:21;59286.19;;;-146.70;78.61
7474;BME280;3778;42.572;23.426;2022-11-15T09:05:48;59261.41;;;-146.70;78.95
7474;BME280;3778;42.572;23.426;2022-11-15T09:08:15;59280.00;;;-146.70;78.76
7474;BME280;3778;42.572;23.426;2022-11-15T09:10:43;59288.25;;;-146.70;78.72
7474;BME280;3778;42.572;23.426;2022-11-15T09:13:09;59238.69;;;-146.70;78.85
7474;BME280;3778;42.572;23.426;2022-11-15T09:15:36;59306.84;;;-146.70;79.17
7474;BME280;3778;42.572;23.426;2022-11-15T09:18:03;59282.06;;;-146.70;78.81
7474;BME280;3778;42.572;23.426;2022-11-15T09:20:30;59257.28;;;-146.70;78.68
7474;BME280;3778;42.572;23.426;2022-11-15T09:22:59;59298.59;;;-146.70;79.01
7474;BME280;3778;42.572;23.426;2022-11-15T09:25:26;59277.94;;;-146.70;78.76
7474;BME280;3778;42.572;23.426;2022-11-15T09:27:54;59267.59;;;-146.70;78.09
7474;BME280;3778;42.572;23.426;2022-11-15T09:30:22;59298.59;;;-146.70;78.28
7474;BME280;3778;42.572;23.426;2022-11-15T09:32:49;59244.88;;;-146.70;78.02
7474;BME280;3778;42.572;23.426;2022-11-15T09:35:16;59296.53;;;-146.70;77.70
7474;BME280;3778;42.572;23.426;2022-11-15T09:37:43;59259.34;;;-146.70;77.57
7474;BME280;3778;42.572;23.426;2022-11-15T09:40:11;59304.78;;;-146.70;76.90
7474;BME280;3778;42.572;23.426;2022-11-15T09:42:59;59282.06;;;-146.70;76.94
7474;BME280;3778;42.572;23.426;2022-11-15T09:45:33;59275.88;;;-146.70;75.99
7474;BME280;3778;42.572;23.426;2022-11-15T09:48:30;59290.31;;;-146.70;75.37
7474;BME280;3778;42.572;23.426;2022-11-15T09:51:03;59273.78;;;-146.70;75.91
7474;BME280;3778;42.572;23.426;2022-11-15T09:53:34;59319.25;;;-146.70;76.01
7474;BME280;3778;42.572;23.426;2022-11-15T09:56:13;59302.72;;;-146.70;75.87
7474;BME280;3778;42.572;23.426;2022-11-15T09:58:49;59290.31;;;-146.70;75.19
7474;BME280;3778;42.572;23.426;2022-11-15T10:01:26;59267.59;;;-146.70;73.60
7474;BME280;3778;42.572;23.426;2022-11-15T10:03:59;59265.53;;;-146.70;74.41
7474;BME280;3778;42.572;23.426;2022-11-15T10:06:26;59310.97;;;-146.70;74.31
7474;BME280;3778;42.572;23.426;2022-11-15T10:08:59;59273.78;;;-146.70;75.39
7474;BME280;3778;42.572;23.426;2022-11-15T10:11:31;59261.41;;;-146.70;75.85
7474;BME280;3778;42.572;23.426;2022-11-15T10:14:02;59277.94;;;-146.70;75.73
7474;BME280;3778;42.572;23.426;2022-11-15T10:19:46;59261.41;;;-146.70;75.58
7474;BME280;3778;42.572;23.426;2022-11-15T10:22:34;59290.31;;;-146.70;76.27
7474;BME280;3778;42.572;23.426;2022-11-15T10:25:20;59290.31;;;-146.70;75.79
7474;BME280;3778;42.572;23.426;2022-11-15T10:27:53;59280.00;;;-146.70;75.33
7474;BME280;3778;42.572;23.426;2022-11-15T10:30:22;59302.72;;;-146.70;75.25
7474;BME280;3778;42.572;23.426;2022-11-15T10:32:50;59277.94;;;-146.70;75.95
7474;BME280;3778;42.572;23.426;2022-11-15T10:35:19;59271.72;;;-146.70;76.00
7474;BME280;3778;42.572;23.426;2022-11-15T10:37:47;59280.00;;;-146.70;76.06
7474;BME280;3778;42.572;23.426;2022-11-15T10:40:20;59296.53;;;-146.70;75.10
7474;BME280;3778;42.572;23.426;2022-11-15T10:42:47;59315.13;;;-146.70;73.91
7474;BME280;3778;42.572;23.426;2022-11-15T10:45:26;59302.72;;;-146.70;72.95
7474;BME280;3778;42.572;23.426;2022-11-15T10:47:53;59277.94;;;-146.70;73.18
7474;BME280;3778;42.572;23.426;2022-11-15T10:50:29;59310.97;;;-146.70;71.47
7474;BME280;3778;42.572;23.426;2022-11-15T10:52:56;59294.44;;;-146.70;71.02
7474;BME280;3778;42.572;23.426;2022-11-15T10:55:26;59298.59;;;-146.70;70.88
7474;BME280;3778;42.572;23.426;2022-11-15T10:57:55;59257.28;;;-146.70;69.23
7474;BME280;3778;42.572;23.426;2022-11-15T11:00:32;59263.47;;;-146.70;69.74
7474;BME280;3778;42.572;23.426;2022-11-15T11:03:03;59286.19;;;-146.70;69.85
7474;BME280;3778;42.572;23.426;2022-11-15T11:05:32;59306.84;;;-146.70;69.15
7474;BME280;3778;42.572;23.426;2022-11-15T11:08:02;59296.53;;;-146.70;68.85
7474;BME280;3778;42.572;23.426;2022-11-15T11:10:29;59315.13;;;-146.70;68.44
7474;BME280;3778;42.572;23.426;2022-11-15T11:13:12;59234.56;;;-146.70;67.65
7474;BME280;3778;42.572;23.426;2022-11-15T11:15:44;59308.91;;;-146.70;67.49
7474;BME280;3778;42.572;23.426;2022-11-15T13:28:20;59271.72;;;-146.70;54.31
7474;BME280;3778;42.572;23.426;2022-11-15T13:30:52;59329.56;;;-146.70;54.20
7474;BME280;3778;42.572;23.426;2022-11-15T13:33:22;59294.44;;;-146.70;54.46
7474;BME280;3778;42.572;23.426;2022-11-15T13:35:55;59294.44;;;-146.70;54.08
7474;BME280;3778;42.572;23.426;2022-11-15T13:38:27;59292.38;;;-146.70;54.05
7474;BME280;3778;42.572;23.426;2022-11-15T13:40:55;59271.72;;;-146.70;53.89
7474;BME280;3778;42.572;23.426;2022-11-15T13:43:37;59304.78;;;-146.70;53.87
7474;BME280;3778;42.572;23.426;2022-11-15T13:46:12;59261.41;;;-146.70;53.85
7474;BME280;3778;42.572;23.426;2022-11-15T13:48:40;59298.59;;;-146.70;54.13
7474;BME280;3778;42.572;23.426;2022-11-15T13:51:10;59273.78;;;-146.70;54.78
7474;BME280;3778;42.572;23.426;2022-11-15T13:53:43;59319.25;;;-146.70;56.09
7474;BME280;3778;42.572;23.426;2022-11-15T13:56:12;59304.78;;;-146.70;56.82
7474;BME280;3778;42.572;23.426;2022-11-15T13:58:41;59298.59;;;-146.70;57.26
7474;BME280;3778;42.572;23.426;2022-11-15T14:01:14;59269.66;;;-146.70;57.01
7474;BME280;3778;42.572;23.426;2022-11-15T14:03:47;59300.66;;;-146.70;56.96
7474;BME280;3778;42.572;23.426;2022-11-15T14:06:17;59280.00;;;-146.70;57.93
7474;BME280;3778;42.572;23.426;2022-11-15T14:09:03;59263.47;;;-146.70;58.60
7474;BME280;3778;42.572;23.426;2022-11-15T14:11:30;59282.06;;;-146.70;59.51
7474;BME280;3778;42.572;23.426;2022-11-15T14:14:11;59275.88;;;-146.70;60.86
7474;BME280;3778;42.572;23.426;2022-11-15T14:16:40;59277.94;;;-146.70;62.20
7474;BME280;3778;42.572;23.426;2022-11-15T14:19:11;59290.31;;;-146.70;63.26
7474;BME280;3778;42.572;23.426;2022-11-15T14:22:07;59290.31;;;-146.70;63.97
7474;BME280;3778;42.572;23.426;2022-11-15T14:24:34;59263.47;;;-146.70;64.71
7474;BME280;3778;42.572;23.426;2022-11-15T14:27:25;59273.78;;;-146.70;65.43
7474;BME280;3778;42.572;23.426;2022-11-15T14:29:53;59267.59;;;-146.70;66.03
7474;BME280;3778;42.572;23.426;2022-11-15T14:32:22;59308.91;;;-146.70;66.85
7474;BME280;3778;42.572;23.426;2022-11-15T14:34:53;59282.06;;;-146.70;66.15
7474;BME280;3778;42.572;23.426;2022-11-15T14:37:22;59277.94;;;-146.70;66.70
7474;BME280;3778;42.572;23.426;2022-11-15T14:39:50;59263.47;;;-146.70;66.70
7474;BME280;3778;42.572;23.426;2022-11-15T14:42:17;59271.72;;;-146.70;67.61
7474;BME280;3778;42.572;23.426;2022-11-15T14:44:45;59265.53;;;-146.70;68.35
7474;BME280;3778;42.572;23.426;2022-11-15T14:47:13;59282.06;;;-146.70;68.06
7474;BME280;3778;42.572;23.426;2022-11-15T14:49:40;59277.94;;;-146.70;68.28
7474;BME280;3778;42.572;23.426;2022-11-15T14:52:28;59261.41;;;-146.70;69.64
7474;BME280;3778;42.572;23.426;2022-11-15T14:54:55;59296.53;;;-146.70;69.78
7474;BME280;3778;42.572;23.426;2022-11-15T14:57:23;59286.19;;;-146.70;69.26
7474;BME280;3778;42.572;23.426;2022-11-15T14:59:50;59339.91;;;-146.70;68.51
7474;BME280;3778;42.572;23.426;2022-11-15T15:02:20;59306.84;;;-146.70;67.33
7474;BME280;3778;42.572;23.426;2022-11-15T15:04:48;59300.66;;;-146.70;68.42
7474;BME280;3778;42.572;23.426;2022-11-15T15:07:15;59249.00;;;-146.70;69.32
7474;BME280;3778;42.572;23.426;2022-11-15T15:09:43;59300.66;;;-146.70;70.77
7474;BME280;3778;42.572;23.426;2022-11-15T15:12:15;59296.53;;;-146.70;72.06
7474;BME280;3778;42.572;23.426;2022-11-15T15:14:42;59273.78;;;-146.70;71.21
7474;BME280;3778;42.572;23.426;2022-11-15T15:17:09;59265.53;;;-146.70;71.38
7474;BME280;3778;42.572;23.426;2022-11-15T15:19:38;59302.72;;;-146.70;71.15
7474;BME280;3778;42.572;23.426;2022-11-15T15:22:05;59232.47;;;-146.70;70.23